Time;durP1;ratioP1;P1;durP2;ratioP2;P2;SDS_P1;SDS_P2;PMS_P1;PMS_P2;Temp;Humidity;BMP_temperature;BMP_pressure;BME280_temperature;BME280_humidity;BME280_pressure;Samples;Min_cycle;Max_cycle;Signal;HPM_P1;HPM_P2
2021/01/18 00:01:34;;;;;;;25.20;11.50;;;;;;;-0.31;94.71;99735.72;5111035;28;20051;-90
2021/01/18 00:04:05;;;;;;;32.08;11.52;;;;;;;-0.30;94.99;99730.28;5114083;28;20151;-90
2021/01/18 00:06:33;;;;;;;29.00;11.63;;;;;;;-0.32;94.18;99728.66;5114252;28;20483;-90
2021/01/18 00:09:04;;;;;;;33.50;11.90;;;;;;;-0.28;94.77;99724.81;5113968;28;20044;-90
2021/01/18 00:14:27;;;;;;;38.30;12.10;;;;;;;-0.09;94.47;99760.06;5103345;28;20569;-89
2021/01/18 00:16:54;;;;;;;30.97;12.23;;;;;;;-0.17;94.35;99737.47;5114201;28;20479;-90
2021/01/18 00:19:20;;;;;;;27.33;11.73;;;;;;;-0.11;94.42;99748.59;5114660;28;20126;-89
2021/01/18 00:21:50;;;;;;;21.30;11.53;;;;;;;-0.22;94.19;99724.41;5111348;28;20092;-88
2021/01/18 00:24:16;;;;;;;;;;;;;;;-0.12;94.49;99738.88;5114795;28;20048;-88
2021/01/18 00:26:48;;;;;;;20.93;11.83;;;;;;;-0.33;94.55;99709.09;5112308;28;20333;-88
2021/01/18 00:29:16;;;;;;;21.97;11.47;;;;;;;-0.30;94.13;99713.34;5104374;28;20083;-90
2021/01/18 00:31:43;;;;;;;36.17;12.77;;;;;;;-0.31;94.55;99712.50;5099178;28;20480;-88
2021/01/18 00:34:09;;;;;;;31.10;11.77;;;;;;;-0.13;94.67;99742.50;5105423;28;20067;-88
2021/01/18 00:36:45;;;;;;;27.40;13.13;;;;;;;-0.36;94.47;99702.13;5104637;28;20078;-87
2021/01/18 00:39:12;;;;;;;26.60;12.40;;;;;;;-0.17;94.50;99742.81;5104277;28;20054;-88
2021/01/18 00:41:42;;;;;;;33.23;12.87;;;;;;;-0.09;94.59;99751.16;5112944;28;20059;-87
2021/01/18 00:44:11;;;;;;;21.50;10.53;;;;;;;-0.17;94.76;99745.47;5103913;28;20044;-89
2021/01/18 00:46:37;;;;;;;25.30;13.07;;;;;;;-0.27;94.47;99724.72;5111666;28;20573;-90
2021/01/18 00:49:04;;;;;;;30.73;11.80;;;;;;;-0.17;94.50;99740.97;5102889;28;20044;-91
2021/01/18 00:51:37;;;;;;;24.77;12.00;;;;;;;-0.16;94.53;99741.84;5099012;28;20508;-90
2021/01/18 00:54:05;;;;;;;34.67;13.37;;;;;;;-0.22;94.55;99729.75;5109860;28;20550;-91
2021/01/18 00:56:31;;;;;;;27.53;11.87;;;;;;;-0.17;94.17;99749.00;5120249;28;20046;-91
2021/01/18 00:58:58;;;;;;;32.47;13.17;;;;;;;-0.12;94.54;99748.69;5133840;28;20043;-93
2021/01/18 01:01:25;;;;;;;27.23;12.47;;;;;;;-0.24;94.46;99726.31;5135150;28;20038;-92
2021/01/18 01:03:51;;;;;;;25.80;12.30;;;;;;;-0.27;94.75;99718.50;5132648;28;20054;-92
2021/01/18 01:06:18;;;;;;;30.87;11.70;;;;;;;-0.21;95.10;99735.00;5129645;28;20040;-94
2021/01/18 01:08:44;;;;;;;28.47;13.20;;;;;;;-0.17;94.19;99737.47;5117720;28;20048;-92
2021/01/18 01:11:11;;;;;;;33.30;12.30;;;;;;;-0.06;94.51;99758.97;5117803;28;20420;-93
2021/01/18 01:13:37;;;;;;;30.57;12.67;;;;;;;-0.14;94.60;99740.78;5113542;28;20522;-92
2021/01/18 01:16:04;;;;;;;30.83;12.30;;;;;;;-0.11;94.61;99743.25;5109788;28;20051;-91
2021/01/18 01:18:31;;;;;;;29.73;11.80;;;;;;;-0.04;94.07;99757.06;5101932;28;20044;-92
2021/01/18 01:20:58;;;;;;;23.20;10.80;;;;;;;-0.04;94.23;99757.91;5099463;28;20508;-91
2021/01/18 01:23:25;;;;;;;31.63;13.53;;;;;;;-0.09;94.57;99754.72;5092561;28;20066;-91
2021/01/18 01:25:51;;;;;;;33.77;14.00;;;;;;;-0.13;94.61;99741.66;5106966;28;20043;-93
2021/01/18 01:28:20;;;;;;;39.27;14.03;;;;;;;-0.23;94.13;99723.53;5112996;28;20146;-92
2021/01/18 01:30:47;;;;;;;31.35;12.27;;;;;;;-0.09;94.29;99754.72;5109230;28;20063;-93
2021/01/18 01:33:13;;;;;;;25.00;11.90;;;;;;;-0.09;94.65;99764.53;5113411;28;20047;-93
2021/01/18 01:35:41;;;;;;;27.20;12.10;;;;;;;-0.14;94.72;99753.28;5113491;28;20051;-92
2021/01/18 01:38:07;;;;;;;22.20;10.73;;;;;;;-0.05;94.32;99761.53;5115435;28;20109;-92
2021/01/18 01:40:34;;;;;;;26.30;12.43;;;;;;;0.03;93.82;99769.06;5117734;28;20467;-91
2021/01/18 01:43:01;;;;;;;36.50;13.50;;;;;;;0.04;94.02;99776.09;5117151;28;20507;-91
2021/01/18 01:45:28;;;;;;;33.80;16.20;;;;;;;0.00;94.45;99761.25;5116856;28;20071;-91
2021/01/18 01:47:55;;;;;;;26.03;12.23;;;;;;;-0.15;93.97;99730.19;5103026;28;20048;-90
2021/01/18 01:50:25;;;;;;;29.83;12.50;;;;;;;-0.17;94.23;99735.63;5104623;28;20048;-91
2021/01/18 01:52:56;;;;;;;31.35;11.77;;;;;;;-0.20;94.14;99738.50;5108774;28;20080;-91
2021/01/18 01:55:28;;;;;;;28.00;12.57;;;;;;;-0.10;94.32;99752.97;5106299;28;20051;-90
2021/01/18 01:57:55;;;;;;;25.60;11.37;;;;;;;-0.10;93.65;99742.28;5102456;28;20101;-90
2021/01/18 02:00:23;;;;;;;31.80;12.47;;;;;;;-0.11;93.77;99739.72;5115498;28;20480;-90
2021/01/18 02:02:50;;;;;;;23.80;12.00;;;;;;;-0.19;93.49;99738.41;5116186;28;20048;-90
2021/01/18 02:05:17;;;;;;;27.30;11.40;;;;;;;0.00;93.98;99769.28;5115657;28;20051;-89
2021/01/18 02:07:43;;;;;;;30.07;12.07;;;;;;;-0.01;94.05;99767.56;5113870;28;20086;-90
2021/01/18 02:10:12;;;;;;;25.50;11.23;;;;;;;-0.15;94.30;99752.44;5116132;28;20086;-89
2021/01/18 02:12:39;;;;;;;31.80;12.57;;;;;;;-0.05;94.13;99772.22;5114974;28;20105;-88
2021/01/18 02:15:25;;;;;;;26.93;10.27;;;;;;;-0.03;94.18;99781.03;5110666;28;20071;-88
2021/01/18 02:18:09;;;;;;;22.07;11.60;;;;;;;-0.13;94.26;99763.88;5115540;28;20051;-87
2021/01/18 02:21:14;;;;;;;26.17;11.17;;;;;;;0.02;94.14;99793.25;5115904;28;20096;-87
2021/01/18 02:24:04;;;;;;;29.00;10.73;;;;;;;0.02;94.37;99788.75;5109546;28;20047;-89
2021/01/18 02:26:51;;;;;;;30.23;11.85;;;;;;;0.05;94.22;99785.00;5115708;28;20055;-89
2021/01/18 02:29:32;;;;;;;24.73;10.43;;;;;;;-0.14;94.63;99756.81;5105801;28;20381;-90
2021/01/18 02:32:32;;;;;;;21.73;10.17;;;;;;;-0.18;94.34;99752.66;5102180;28;20052;-91
2021/01/18 02:35:19;;;;;;;20.42;10.10;;;;;;;-0.19;94.27;99762.47;5111686;28;20054;-90
2021/01/18 02:38:01;;;;;;;21.37;10.63;;;;;;;-0.11;94.41;99769.97;5106041;28;20051;-91
2021/01/18 02:40:33;;;;;;;23.83;10.13;;;;;;;-0.13;94.21;99766.56;5115407;28;20466;-90
2021/01/18 02:43:04;;;;;;;28.97;10.70;;;;;;;-0.13;94.25;99755.03;5115032;28;20465;-89
2021/01/18 02:45:32;;;;;;;29.03;12.30;;;;;;;-0.05;93.94;99780.25;5106890;28;20040;-88
2021/01/18 02:48:00;;;;;;;26.97;10.73;;;;;;;-0.07;94.06;99779.50;5112243;28;20071;-87
2021/01/18 02:50:28;;;;;;;30.50;11.80;;;;;;;-0.26;94.24;99758.47;5113669;28;20134;-87
2021/01/18 02:53:19;;;;;;;29.50;9.50;;;;;;;-0.26;94.58;99758.47;5104057;28;20054;-86
2021/01/18 03:07:17;;;;;;;34.93;11.90;;;;;;;-0.08;93.98;99783.13;6021268;23;20060;-84
2021/01/18 03:10:00;;;;;;;27.37;11.17;;;;;;;-0.11;93.66;99796.69;5052175;28;20048;-83
2021/01/18 03:12:31;;;;;;;25.03;11.70;;;;;;;-0.17;94.23;99780.22;5053823;28;20045;-84
2021/01/18 03:15:00;;;;;;;41.10;12.20;;;;;;;-0.17;93.83;99782.91;5053380;28;20056;-84
2021/01/18 03:17:30;;;;;;;29.07;12.10;;;;;;;-0.06;94.29;99791.91;5054073;28;20049;-84
2021/01/18 03:20:07;;;;;;;23.43;10.43;;;;;;;-0.06;93.82;99791.03;5053483;28;20061;-85
2021/01/18 03:22:44;;;;;;;28.53;11.67;;;;;;;-0.06;93.84;99789.25;5052915;28;20049;-85
2021/01/18 03:25:12;;;;;;;27.67;11.50;;;;;;;-0.04;94.09;99792.66;5033740;28;20050;-85
2021/01/18 03:27:52;;;;;;;30.80;12.40;;;;;;;-0.06;93.55;99786.56;5046263;28;20045;-85
2021/01/18 03:30:20;;;;;;;35.40;11.63;;;;;;;-0.21;94.07;99758.16;5053561;28;20053;-86
2021/01/18 03:32:50;;;;;;;40.67;13.17;;;;;;;-0.14;93.81;99769.31;5052786;28;20090;-86
2021/01/18 03:35:16;;;;;;;;;;;;;;;-0.01;94.28;99795.13;5048912;28;20201;-86
2021/01/18 03:37:43;;;;;;;30.83;12.03;;;;;;;-0.13;93.62;99779.91;5053011;28;19920;-86
2021/01/18 03:40:11;;;;;;;25.83;11.13;;;;;;;-0.25;93.71;99778.06;5053414;28;20045;-85
2021/01/18 03:43:17;;;;;;;29.27;12.97;;;;;;;-0.25;94.18;99772.72;5053589;28;20128;-85
2021/01/18 03:46:08;;;;;;;24.60;10.90;;;;;;;-0.13;93.90;99795.94;5030483;28;20057;-84
2021/01/18 03:48:48;;;;;;;30.77;11.30;;;;;;;-0.31;94.28;99781.97;5036386;28;20095;-85
2021/01/18 03:51:15;;;;;;;35.10;12.30;;;;;;;-0.21;94.29;99782.22;5052321;28;20068;-84
2021/01/18 03:53:42;;;;;;;24.80;11.90;;;;;;;-0.23;94.06;99782.31;5052958;28;20041;-84
2021/01/18 03:56:12;;;;;;;33.20;12.57;;;;;;;-0.16;93.92;99793.47;5052082;28;20102;-83
2021/01/18 03:58:39;;;;;;;24.05;11.45;;;;;;;-0.20;93.78;99792.84;5052742;28;20049;-83
2021/01/18 04:01:11;;;;;;;29.10;12.23;;;;;;;-0.17;93.91;99809.63;5052274;28;20056;-83
2021/01/18 04:03:37;;;;;;;23.93;10.03;;;;;;;-0.26;94.13;99803.06;5052551;28;20049;-85
2021/01/18 04:06:04;;;;;;;31.77;11.43;;;;;;;-0.37;93.79;99801.94;5052436;28;20493;-85
2021/01/18 04:08:30;;;;;;;26.87;11.23;;;;;;;-0.32;93.75;99806.13;5052235;28;20056;-85
2021/01/18 04:10:56;;;;;;;22.30;8.47;;;;;;;-0.34;94.13;99800.88;5053079;28;20416;-86
2021/01/18 04:13:23;;;;;;;27.37;11.43;;;;;;;-0.30;94.23;99807.75;5052155;28;20045;-85
2021/01/18 04:15:57;;;;;;;30.43;10.73;;;;;;;-0.37;94.22;99801.94;5052498;28;20060;-84
2021/01/18 04:18:24;;;;;;;30.47;9.77;;;;;;;-0.38;94.08;99808.25;5048126;28;20444;-85
2021/01/18 04:20:50;;;;;;;20.93;9.17;;;;;;;-0.47;94.25;99810.66;5052923;28;20069;-86
2021/01/18 04:23:17;;;;;;;15.43;7.97;;;;;;;-0.62;94.52;99809.81;5052563;28;20080;-87
2021/01/18 04:25:43;;;;;;;25.20;9.37;;;;;;;-0.64;94.65;99806.41;5036640;28;20049;-89
2021/01/18 04:28:10;;;;;;;24.00;10.00;;;;;;;-0.74;94.36;99801.66;5047251;28;20056;-90
2021/01/18 04:30:39;;;;;;;21.17;9.50;;;;;;;-0.74;94.45;99808.78;5054211;28;20098;-93
2021/01/18 04:33:07;;;;;;;25.35;10.32;;;;;;;-0.81;94.67;99802.97;5054668;28;20064;-94
2021/01/18 04:35:36;;;;;;;18.10;9.07;;;;;;;-0.84;94.96;99810.31;5054974;28;20053;-95
2021/01/18 04:38:03;;;;;;;22.30;9.23;;;;;;;-0.76;94.74;99816.03;5056380;28;20048;-96
2021/01/18 04:40:31;;;;;;;18.80;9.20;;;;;;;-0.91;94.45;99800.03;5067223;28;20095;-95
2021/01/18 04:42:58;;;;;;;19.10;10.70;;;;;;;-0.86;95.14;99820.25;5062703;28;20082;-94
2021/01/18 04:45:27;;;;;;;26.93;11.30;;;;;;;-0.89;95.32;99797.25;5059720;28;20053;-94
2021/01/18 04:47:57;;;;;;;27.27;10.87;;;;;;;-0.81;95.16;99813.66;5057788;28;20045;-95
2021/01/18 04:50:26;;;;;;;20.45;9.70;;;;;;;-0.83;94.79;99810.22;5054617;28;20306;-95
2021/01/18 04:52:54;;;;;;;22.00;8.40;;;;;;;-0.89;94.87;99805.25;5058492;28;20064;-96
2021/01/18 04:55:33;;;;;;;22.53;9.77;;;;;;;-0.88;95.09;99808.81;5062942;28;20052;-96
2021/01/18 04:58:07;;;;;;;34.90;10.20;;;;;;;-0.88;94.95;99804.31;5055992;28;20057;-94
2021/01/18 05:00:42;;;;;;;26.23;10.47;;;;;;;-0.79;94.98;99813.56;5054304;28;20485;-94
2021/01/18 05:03:12;;;;;;;29.67;9.87;;;;;;;-0.82;95.02;99801.25;5054329;28;20049;-92
2021/01/18 05:05:58;;;;;;;19.08;10.40;;;;;;;-0.64;95.50;99817.06;5053813;28;20055;-92
2021/01/18 05:08:53;;;;;;;32.27;9.57;;;;;;;-0.66;95.03;99810.97;5052914;28;20045;-91
2021/01/18 05:11:20;;;;;;;31.00;9.60;;;;;;;-0.59;94.76;99814.97;5053221;28;20109;-89
2021/01/18 05:13:49;;;;;;;28.40;10.17;;;;;;;-0.48;94.69;99815.16;5056206;28;20500;-85
2021/01/18 05:16:25;;;;;;;23.08;9.88;;;;;;;-0.54;95.02;99803.03;5056739;28;20132;-89
2021/01/18 05:18:57;;;;;;;30.43;10.50;;;;;;;-0.57;94.99;99791.69;5056714;28;20049;-90
2021/01/18 05:21:29;;;;;;;24.27;10.70;;;;;;;-0.54;94.52;99796.84;5057233;28;20128;-91
2021/01/18 05:23:57;;;;;;;30.50;10.70;;;;;;;-0.32;94.72;99833.69;5058395;28;20053;-91
2021/01/18 05:26:27;;;;;;;25.23;11.13;;;;;;;-0.34;94.66;99818.75;5058314;28;20044;-90
2021/01/18 05:29:04;;;;;;;24.90;11.38;;;;;;;-0.44;94.22;99818.47;5056276;28;20057;-90
2021/01/18 05:32:27;;;;;;;26.33;10.67;;;;;;;-0.31;94.40;99823.88;5056091;28;20390;-89
2021/01/18 05:42:32;;;;;;;18.27;9.20;;;;;;;-0.31;94.20;99845.25;5025226;28;20049;-89
2021/01/18 05:59:46;;;;;;;23.33;10.80;;;;;;;-0.49;94.18;99829.44;4844911;29;20116;-89
2021/01/18 06:12:31;;;;;;;26.98;10.30;;;;;;;-0.40;93.65;99854.72;5014205;28;20045;-91
2021/01/18 06:15:21;;;;;;;29.23;10.53;;;;;;;-0.30;93.31;99871.88;5038095;28;20064;-91
2021/01/18 06:18:06;;;;;;;20.92;9.57;;;;;;;-0.32;93.63;99873.78;5056878;28;20057;-91
2021/01/18 06:20:39;;;;;;;32.67;11.13;;;;;;;-0.24;93.66;99881.28;5052895;28;20053;-88
2021/01/18 06:23:20;;;;;;;30.00;10.87;;;;;;;-0.24;93.86;99876.84;5055380;28;20519;-88
2021/01/18 06:25:49;;;;;;;23.67;12.00;;;;;;;-0.32;93.17;99860.41;5056714;28;20052;-91
2021/01/18 06:28:27;;;;;;;27.95;11.63;;;;;;;-0.24;93.12;99881.28;5056214;28;20113;-92
2021/01/18 06:31:03;;;;;;;36.10;12.00;;;;;;;-0.19;93.23;99882.72;5056092;28;20049;-90
2021/01/18 06:33:41;;;;;;;24.10;10.20;;;;;;;-0.14;92.77;99889.59;5055777;28;20104;-88
2021/01/18 06:36:22;;;;;;;28.33;10.40;;;;;;;-0.27;92.73;99868.13;5055493;28;20056;-88
2021/01/18 06:39:06;;;;;;;22.37;8.63;;;;;;;-0.12;93.06;99891.22;5055749;28;20106;-92
2021/01/18 06:41:33;;;;;;;22.63;10.33;;;;;;;-0.32;93.28;99868.44;5056071;28;20148;-91
2021/01/18 06:44:02;;;;;;;27.30;10.37;;;;;;;-0.22;92.73;99882.09;5056342;28;20137;-94
2021/01/18 06:46:31;;;;;;;23.53;7.50;;;;;;;-0.22;92.84;99879.41;5056346;28;20067;-93
2021/01/18 06:48:57;;;;;;;23.53;8.93;;;;;;;-0.12;92.84;99888.56;5056396;28;20144;-91
2021/01/18 06:51:30;;;;;;;21.23;9.40;;;;;;;-0.12;92.70;99893.03;5056658;28;20455;-93
2021/01/18 06:53:58;;;;;;;30.93;10.13;;;;;;;-0.22;92.69;99882.94;5056319;28;20053;-89
2021/01/18 06:57:00;;;;;;;17.23;9.73;;;;;;;-0.24;92.31;99883.97;5056383;28;20140;-90
2021/01/18 06:59:55;;;;;;;23.73;10.77;;;;;;;-0.11;92.68;99900.09;5056411;28;20045;-94
2021/01/18 07:02:34;;;;;;;24.83;10.20;;;;;;;-0.22;92.67;99887.44;5056498;28;20135;-92
2021/01/18 07:05:11;;;;;;;19.07;8.60;;;;;;;-0.07;92.25;99928.34;5056291;28;20045;-92
2021/01/18 07:07:54;;;;;;;22.20;8.77;;;;;;;-0.18;92.56;99899.63;5056258;28;20119;-91
2021/01/18 07:14:19;;;;;;;22.97;8.10;;;;;;;-0.25;92.48;99892.97;4956474;29;20198;-91
2021/01/18 07:17:11;;;;;;;26.37;9.37;;;;;;;-0.23;92.81;99905.25;4993665;28;20052;-89
2021/01/18 07:23:25;;;;;;;25.53;10.47;;;;;;;-0.07;92.84;99933.69;5055419;28;20136;-89
2021/01/18 07:26:07;;;;;;;19.23;8.07;;;;;;;-0.21;93.25;99916.72;5055768;28;20136;-90
2021/01/18 07:28:41;;;;;;;19.17;9.00;;;;;;;-0.05;92.68;99935.28;5054878;28;20144;-91
2021/01/18 07:31:09;;;;;;;20.87;8.73;;;;;;;-0.19;92.34;99908.59;5055155;28;20436;-90
2021/01/18 07:33:50;;;;;;;20.90;9.27;;;;;;;-0.21;92.49;99910.50;5054889;28;20157;-91
2021/01/18 07:36:29;;;;;;;20.10;8.97;;;;;;;0.05;92.60;99945.44;5054039;28;20052;-91
2021/01/18 07:38:56;;;;;;;26.90;9.25;;;;;;;-0.12;92.56;99925.97;5055353;28;20045;-90
2021/01/18 07:41:39;;;;;;;26.70;9.43;;;;;;;-0.10;92.47;99920.53;5055274;28;20064;-92
2021/01/18 07:44:32;;;;;;;20.70;9.27;;;;;;;-0.08;92.21;99914.09;5054714;28;20053;-91
2021/01/18 07:47:02;;;;;;;24.17;9.13;;;;;;;-0.03;92.19;99919.16;5055094;28;20072;-90
2021/01/18 07:49:49;;;;;;;18.77;9.07;;;;;;;0.01;91.58;99923.34;5055222;28;20131;-87
2021/01/18 07:52:31;;;;;;;21.70;8.60;;;;;;;-0.03;91.71;99916.47;5054515;28;20060;-90
2021/01/18 07:55:21;;;;;;;22.17;9.47;;;;;;;0.02;92.11;99924.22;5054159;28;20160;-87
2021/01/18 07:58:09;;;;;;;28.80;9.47;;;;;;;0.09;91.83;99930.88;5054257;28;20052;-87
2021/01/18 08:00:38;;;;;;;21.00;8.60;;;;;;;0.15;91.29;99944.72;5042773;28;20115;-90
2021/01/18 08:03:28;;;;;;;28.53;10.37;;;;;;;0.23;91.50;99954.91;5053727;28;20059;-86
2021/01/18 08:09:29;;;;;;;21.60;8.47;;;;;;;0.28;91.65;99958.13;5052687;28;20052;-90
2021/01/18 08:12:29;;;;;;;14.33;7.97;;;;;;;0.23;91.88;99968.28;5054626;28;20063;-87
2021/01/18 08:15:05;;;;;;;18.40;8.05;;;;;;;0.13;91.47;99951.13;5053736;28;20545;-87
2021/01/18 08:17:32;;;;;;;19.87;8.90;;;;;;;0.23;91.81;99951.41;5034884;28;20064;-90
2021/01/18 08:20:26;;;;;;;;;;;;;;;;;;;;;
2021/01/18 08:23:58;;;;;;;24.10;8.60;;;;;;;0.41;91.66;99968.91;5037907;28;20072;-90
2021/01/18 08:30:47;;;;;;;23.10;9.43;;;;;;;0.33;89.71;99956.03;5032523;28;20095;-91
2021/01/18 08:36:54;;;;;;;29.80;9.43;;;;;;;0.52;90.11;99984.25;4953242;29;20058;-90
2021/01/18 08:39:32;;;;;;;19.93;9.50;;;;;;;0.41;89.60;99963.56;4994984;28;20556;-90
2021/01/18 08:45:16;;;;;;;18.73;8.50;;;;;;;0.67;89.65;99975.22;5036773;28;20057;-91
2021/01/18 08:48:11;;;;;;;16.57;7.50;;;;;;;0.85;88.66;99974.97;5010480;28;20559;-91
2021/01/18 08:50:52;;;;;;;18.80;7.93;;;;;;;0.83;88.47;99977.72;5053244;28;20065;-88
2021/01/18 08:53:30;;;;;;;19.50;8.33;;;;;;;0.75;88.78;99952.44;5054594;28;20075;-91
2021/01/18 08:56:04;;;;;;;15.57;7.67;;;;;;;0.85;89.28;99958.91;5054322;28;20045;-89
2021/01/18 08:58:54;;;;;;;30.27;8.87;;;;;;;0.78;88.89;99942.38;5054359;28;20056;-89
2021/01/18 09:01:32;;;;;;;;;;;;;;;;;;;;;
2021/01/18 09:04:01;;;;;;;17.33;8.60;;;;;;;0.76;88.78;99952.34;5054256;28;20041;-93
2021/01/18 09:06:28;;;;;;;16.63;7.97;;;;;;;0.64;89.28;99951.34;5056461;28;20057;-92
2021/01/18 09:09:04;;;;;;;24.20;8.35;;;;;;;0.73;89.47;99957.03;5054385;28;20045;-93
2021/01/18 09:11:34;;;;;;;21.70;9.37;;;;;;;0.81;89.25;99970.75;5055381;28;20049;-90
2021/01/18 09:14:02;;;;;;;22.50;9.47;;;;;;;0.77;89.18;99963.88;5054532;28;20057;-90
2021/01/18 09:16:32;;;;;;;25.17;9.97;;;;;;;0.75;89.60;99941.72;5054212;28;20075;-91
2021/01/18 09:19:04;;;;;;;;;;;;;;;0.98;89.36;99991.03;5054546;28;20087;-90
2021/01/18 09:21:32;;;;;;;28.45;8.02;;;;;;;0.90;88.91;99993.38;5054131;28;19921;-91
2021/01/18 09:24:06;;;;;;;18.93;9.20;;;;;;;0.76;88.72;99946.13;5053789;28;20049;-91
2021/01/18 09:26:34;;;;;;;24.73;8.20;;;;;;;0.86;88.96;99988.22;5053804;28;20045;-88
2021/01/18 09:29:01;;;;;;;19.70;8.77;;;;;;;0.95;88.77;99978.72;5039534;28;20041;-88
2021/01/18 09:31:28;;;;;;;20.33;7.80;;;;;;;0.91;88.83;99971.00;5033536;28;20486;-88
2021/01/18 09:33:56;;;;;;;31.00;9.20;;;;;;;0.99;88.93;99990.09;5034042;28;20482;-87
2021/01/18 09:36:29;;;;;;;23.70;9.67;;;;;;;0.95;88.72;99988.56;5033855;28;20056;-90
2021/01/18 09:39:20;;;;;;;17.60;7.20;;;;;;;0.89;88.15;99968.44;5034115;28;20069;-91
2021/01/18 09:41:59;;;;;;;20.20;9.20;;;;;;;1.18;88.57;99997.75;5036229;28;20409;-87
2021/01/18 09:44:33;;;;;;;22.63;8.93;;;;;;;1.12;88.48;99972.22;5054160;28;20052;-88
2021/01/18 09:47:00;;;;;;;17.67;7.78;;;;;;;1.10;87.79;99984.00;5053946;28;20516;-90
2021/01/18 09:49:27;;;;;;;16.13;7.10;;;;;;;1.15;87.48;99977.38;5053768;28;20056;-91
2021/01/18 09:51:57;;;;;;;16.80;6.37;;;;;;;0.89;87.51;99968.44;5054399;28;20054;-91
2021/01/18 09:54:27;;;;;;;14.23;6.07;;;;;;;1.09;88.12;99984.97;5054298;28;20435;-91
2021/01/18 09:56:59;;;;;;;18.30;7.33;;;;;;;1.15;87.80;99976.53;5053939;28;20413;-90
2021/01/18 09:59:29;;;;;;;13.20;7.17;;;;;;;1.00;88.23;99951.66;5056254;28;20057;-91
2021/01/18 10:01:56;;;;;;;;;;;;;;;1.28;88.06;99985.44;5058048;28;20135;-87
2021/01/18 10:04:24;;;;;;;16.10;6.70;;;;;;;1.20;87.33;99963.66;5048895;28;19928;-92
2021/01/18 10:07:02;;;;;;;17.92;7.95;;;;;;;1.23;87.49;99963.44;5037245;28;20466;-92
2021/01/18 10:09:31;;;;;;;14.73;8.40;;;;;;;1.13;87.45;99959.69;5036544;28;20051;-91
2021/01/18 10:11:59;;;;;;;12.48;7.00;;;;;;;1.03;87.17;99959.47;5036340;28;20057;-91
2021/01/18 10:17:30;;;;;;;16.93;6.30;;;;;;;1.11;87.66;99970.50;5037519;28;20494;-92
2021/01/18 10:20:32;;;;;;;16.10;7.33;;;;;;;0.92;87.72;99953.97;5055400;28;20053;-91
2021/01/18 10:23:24;;;;;;;14.60;6.40;;;;;;;0.97;87.72;99941.16;5055036;28;20218;-91
2021/01/18 10:25:53;;;;;;;13.68;7.10;;;;;;;1.13;88.02;99962.34;5055052;28;20060;-92
2021/01/18 10:28:24;;;;;;;15.13;6.85;;;;;;;1.09;87.66;99951.00;5055323;28;20037;-91
2021/01/18 10:30:56;;;;;;;9.98;5.95;;;;;;;1.20;87.18;99937.72;5054913;28;20103;-92
2021/01/18 10:33:24;;;;;;;18.52;7.32;;;;;;;1.43;87.10;99951.38;5054807;28;20052;-91
2021/01/18 10:35:54;;;;;;;16.20;6.88;;;;;;;1.45;86.90;99935.19;5054971;28;20561;-91
2021/01/18 10:38:22;;;;;;;14.57;6.72;;;;;;;1.60;86.85;99960.91;5054914;28;20481;-91
2021/01/18 10:41:13;;;;;;;16.45;7.18;;;;;;;1.49;86.11;99931.31;5055111;28;20057;-91
2021/01/18 10:43:48;;;;;;;14.77;7.13;;;;;;;1.64;86.24;99940.97;5035447;28;20486;-92
2021/01/18 10:46:22;;;;;;;13.13;6.78;;;;;;;1.65;85.55;99941.81;5035142;28;20052;-91
2021/01/18 10:48:57;;;;;;;16.65;7.07;;;;;;;1.72;85.07;99937.72;5054799;28;20068;-92
2021/01/18 10:51:27;;;;;;;17.30;7.03;;;;;;;1.86;85.12;99947.47;5054954;28;20132;-92
2021/01/18 10:53:57;;;;;;;15.48;6.50;;;;;;;1.71;85.57;99938.69;5046030;28;20072;-91
2021/01/18 10:56:36;;;;;;;14.88;6.70;;;;;;;1.75;85.33;99937.50;5055604;28;20049;-92
2021/01/18 10:59:04;;;;;;;13.43;6.90;;;;;;;1.82;84.46;99932.56;5055103;28;20123;-92
2021/01/18 11:01:34;;;;;;;16.58;6.78;;;;;;;1.92;84.79;99963.09;5054866;28;20090;-92
2021/01/18 11:04:23;;;;;;;9.88;5.80;;;;;;;1.82;85.37;99972.78;5054773;28;20045;-92
2021/01/18 11:06:50;;;;;;;15.77;7.32;;;;;;;1.48;85.92;99951.03;5055380;28;20049;-93
2021/01/18 11:09:29;;;;;;;16.63;6.65;;;;;;;1.51;86.15;99978.47;5054563;28;20045;-92
2021/01/18 11:11:59;;;;;;;19.00;6.93;;;;;;;1.30;86.62;99951.34;5057205;28;20117;-93
2021/01/18 11:14:31;;;;;;;22.67;8.13;;;;;;;1.55;87.11;99971.94;5055757;28;20065;-94
2021/01/18 11:17:01;;;;;;;12.50;6.40;;;;;;;1.22;86.61;99949.22;5056239;28;20076;-94
2021/01/18 11:19:29;;;;;;;11.70;5.88;;;;;;;1.40;86.48;99947.06;5056975;28;20041;-94
2021/01/18 11:22:00;;;;;;;14.35;5.75;;;;;;;1.48;86.49;99949.22;5057069;28;20141;-94
2021/01/18 11:24:36;;;;;;;12.20;6.80;;;;;;;1.37;86.08;99928.53;5056913;28;20048;-94
2021/01/18 11:27:03;;;;;;;13.45;5.82;;;;;;;1.63;85.71;99928.50;5058350;28;20098;-95
2021/01/18 11:29:31;;;;;;;13.50;6.72;;;;;;;1.81;85.23;99952.28;5062053;28;20077;-95
2021/01/18 11:31:58;;;;;;;10.38;5.78;;;;;;;1.81;84.32;99931.72;5065279;28;20127;-95
2021/01/18 11:34:24;;;;;;;14.60;5.65;;;;;;;1.74;84.57;99930.44;5063103;28;20053;-93
2021/01/18 11:36:51;;;;;;;14.23;5.45;;;;;;;1.80;84.29;99926.47;5065177;28;20060;-93
2021/01/18 11:39:17;;;;;;;9.75;4.82;;;;;;;1.62;84.75;99916.06;5068422;28;20056;-92
2021/01/18 11:41:44;;;;;;;11.27;5.78;;;;;;;1.73;85.01;99923.34;5075197;28;20136;-94
2021/01/18 11:44:11;;;;;;;11.63;5.03;;;;;;;1.71;84.98;99934.16;5064225;28;20071;-93
2021/01/18 11:46:39;;;;;;;9.38;4.47;;;;;;;1.70;84.65;99921.75;5057836;28;20635;-92
2021/01/18 11:49:06;;;;;;;12.07;4.80;;;;;;;1.70;84.87;99929.81;5060661;28;20055;-91
2021/01/18 11:51:35;;;;;;;8.25;4.45;;;;;;;1.59;85.14;99910.94;5057031;28;20052;-91
2021/01/18 11:54:01;;;;;;;12.60;4.60;;;;;;;1.59;84.93;99911.78;5054917;28;20160;-91
2021/01/18 11:56:32;;;;;;;13.43;4.35;;;;;;;1.74;84.53;99920.56;5056231;28;20115;-90
2021/01/18 11:58:59;;;;;;;18.58;4.85;;;;;;;1.82;84.05;99928.03;5054800;28;20148;-90
2021/01/18 12:01:26;;;;;;;11.68;4.00;;;;;;;1.72;83.99;99909.09;5037650;28;20048;-90
2021/01/18 12:03:53;;;;;;;8.20;4.18;;;;;;;1.65;84.29;99910.50;5054052;28;20053;-90
2021/01/18 12:06:21;;;;;;;8.68;3.67;;;;;;;1.75;84.70;99924.09;5053203;28;20075;-89
2021/01/18 12:08:49;;;;;;;7.85;3.60;;;;;;;1.70;84.40;99919.06;5053369;28;20060;-88
2021/01/18 12:11:16;;;;;;;10.93;3.05;;;;;;;1.66;84.76;99901.50;5052604;28;20500;-88
2021/01/18 12:13:42;;;;;;;6.18;3.38;;;;;;;1.80;84.46;99921.94;5053004;28;20049;-88
2021/01/18 12:16:08;;;;;;;10.57;3.80;;;;;;;1.67;84.11;99913.06;5052319;28;20057;-87
2021/01/18 12:18:35;;;;;;;9.52;3.67;;;;;;;1.62;84.49;99896.47;5052532;28;20312;-87
2021/01/18 12:21:02;;;;;;;12.23;3.33;;;;;;;1.53;84.32;99877.38;5051868;28;20045;-87
2021/01/18 12:23:28;;;;;;;7.05;3.33;;;;;;;1.59;84.39;99893.00;5044721;28;20045;-86
2021/01/18 12:25:55;;;;;;;7.13;3.20;;;;;;;1.56;84.74;99897.75;5032290;28;20057;-87
2021/01/18 12:28:21;;;;;;;7.90;3.70;;;;;;;1.63;84.29;99885.63;5050806;28;20049;-86
2021/01/18 12:30:47;;;;;;;10.02;3.47;;;;;;;1.66;84.14;99887.25;5051902;28;20049;-85
2021/01/18 12:33:14;;;;;;;9.13;3.30;;;;;;;1.63;84.38;99874.91;5051940;28;20048;-86
2021/01/18 12:35:40;;;;;;;8.30;3.15;;;;;;;1.78;83.80;99899.75;5052040;28;20067;-85
2021/01/18 12:38:08;;;;;;;11.13;4.50;;;;;;;1.79;83.86;99895.25;5051388;28;20118;-85
2021/01/18 12:40:34;;;;;;;10.68;3.75;;;;;;;1.93;83.99;99895.09;5052038;28;20053;-85
2021/01/18 12:43:00;;;;;;;7.32;2.78;;;;;;;1.88;83.40;99884.72;5051801;28;20385;-85
2021/01/18 12:45:29;;;;;;;7.47;2.58;;;;;;;1.95;83.65;99895.84;5052091;28;20052;-85
2021/01/18 12:47:55;;;;;;;10.30;3.90;;;;;;;1.90;83.25;99876.56;5052006;28;20053;-84
2021/01/18 12:50:21;;;;;;;7.32;3.17;;;;;;;2.04;83.32;99889.81;5051663;28;20166;-84
2021/01/18 12:52:49;;;;;;;9.43;3.00;;;;;;;1.87;82.80;99866.91;5052111;28;20147;-84
2021/01/18 12:55:16;;;;;;;4.68;3.20;;;;;;;1.97;83.14;99888.53;5051422;28;20083;-84
2021/01/18 12:57:42;;;;;;;5.05;3.15;;;;;;;1.90;83.50;99880.09;5052305;28;20057;-84
2021/01/18 13:00:10;;;;;;;8.20;2.25;;;;;;;1.89;82.63;99869.47;5051251;28;20053;-84
2021/01/18 13:02:39;;;;;;;3.42;2.20;;;;;;;1.89;82.55;99883.72;5051825;28;20045;-83
2021/01/18 13:05:06;;;;;;;2.63;2.17;;;;;;;2.00;83.00;99877.56;5051169;28;20075;-83
2021/01/18 13:07:32;;;;;;;5.55;2.67;;;;;;;1.93;82.07;99870.97;5034243;28;20394;-83